Time;durP1;ratioP1;P1;durP2;ratioP2;P2;SDS_P1;SDS_P2;PMS_P1;PMS_P2;Temp;Humidity;BMP_temperature;BMP_pressure;BME280_temperature;BME280_humidity;BME280_pressure;Samples;Min_cycle;Max_cycle;Signal;HPM_P1;HPM_P2
2023/07/15 00:01:23;;;;;;;4.97;3.22;;;;;;;;;;5053261;28;20028;-71
2023/07/15 00:03:49;;;;;;;3.92;3.00;;;;;;;;;;5054057;28;20029;-70
2023/07/15 00:06:15;;;;;;;4.82;2.70;;;;;;;;;;5053814;28;20498;-70
2023/07/15 00:08:40;;;;;;;8.18;2.90;;;;;;;;;;5053514;28;20473;-70
2023/07/15 00:11:06;;;;;;;3.85;2.60;;;;;;;;;;5052289;28;20033;-70
2023/07/15 00:13:31;;;;;;;5.57;2.90;;;;;;;;;;5053719;28;20104;-70
2023/07/15 00:15:57;;;;;;;2.90;2.53;;;;;;;;;;5052877;28;20040;-70
2023/07/15 00:18:22;;;;;;;4.40;2.85;;;;;;;;;;5053398;28;20387;-70
2023/07/15 00:20:48;;;;;;;4.60;2.67;;;;;;;;;;5053373;28;20058;-70
2023/07/15 00:23:20;;;;;;;4.45;2.90;;;;;;;;;;5053320;28;20033;-70
2023/07/15 00:25:45;;;;;;;4.75;3.30;;;;;;;;;;5052270;28;20104;-70
2023/07/15 00:28:11;;;;;;;3.97;3.00;;;;;;;;;;5053374;28;20029;-70
2023/07/15 00:30:37;;;;;;;7.50;2.97;;;;;;;;;;5053143;28;20082;-70
2023/07/15 00:33:02;;;;;;;9.43;3.08;;;;;;;;;;5053716;28;20480;-70
2023/07/15 00:35:31;;;;;;;6.90;3.10;;;;;;;;;;5052342;28;20369;-70
2023/07/15 00:38:00;;;;;;;5.45;2.45;;;;;;;;;;5052081;28;20160;-70
2023/07/15 00:40:27;;;;;;;5.35;3.55;;;;;;;;;;5053121;28;20029;-70
2023/07/15 00:43:30;;;;;;;5.00;2.90;;;;;;;;;;5053428;28;20036;-70
2023/07/15 00:46:22;;;;;;;5.00;2.90;;;;;;;;;;5051683;28;20052;-70
2023/07/15 00:48:56;;;;;;;5.95;2.83;;;;;;;;;;5044779;28;20045;-70
2023/07/15 00:51:22;;;;;;;;;;;;;;;;;;5053949;28;20032;-70
2023/07/15 00:53:49;;;;;;;6.10;2.65;;;;;;;;;;5051665;28;19913;-71
2023/07/15 00:56:15;;;;;;;6.97;2.47;;;;;;;;;;5052789;28;20025;-70
2023/07/15 00:58:40;;;;;;;4.10;2.60;;;;;;;;;;5053157;28;20032;-70
2023/07/15 01:01:10;;;;;;;9.07;2.50;;;;;;;;;;5052916;28;20028;-70
2023/07/15 01:03:37;;;;;;;3.53;2.30;;;;;;;;;;5051640;28;20464;-71
2023/07/15 01:06:03;;;;;;;3.03;2.22;;;;;;;;;;5053057;28;20025;-70
2023/07/15 01:08:28;;;;;;;4.22;2.28;;;;;;;;;;5052541;28;20079;-70
2023/07/15 01:10:55;;;;;;;3.40;2.40;;;;;;;;;;5052776;28;20021;-70
2023/07/15 01:13:20;;;;;;;3.75;2.38;;;;;;;;;;5053095;28;20341;-70
2023/07/15 01:15:46;;;;;;;7.15;2.60;;;;;;;;;;5052752;28;20097;-70
2023/07/15 01:18:12;;;;;;;6.53;2.67;;;;;;;;;;5052964;28;20023;-69
2023/07/15 01:20:37;;;;;;;6.80;2.60;;;;;;;;;;5052847;28;20056;-71
2023/07/15 01:23:03;;;;;;;5.78;2.35;;;;;;;;;;5052821;28;20574;-72
2023/07/15 01:25:28;;;;;;;3.08;2.28;;;;;;;;;;5052649;28;20033;-70
2023/07/15 01:27:53;;;;;;;6.22;2.45;;;;;;;;;;5056874;28;20383;-70
2023/07/15 01:30:19;;;;;;;3.00;2.20;;;;;;;;;;5057064;28;20057;-71
2023/07/15 01:32:44;;;;;;;4.13;2.40;;;;;;;;;;5056576;28;20256;-71
2023/07/15 01:35:09;;;;;;;9.73;2.40;;;;;;;;;;5056745;28;20452;-70
2023/07/15 01:37:34;;;;;;;7.73;2.70;;;;;;;;;;5055573;28;20337;-71
2023/07/15 01:40:00;;;;;;;4.20;2.33;;;;;;;;;;5056837;28;20262;-71
2023/07/15 01:42:25;;;;;;;4.43;2.47;;;;;;;;;;5056879;28;20254;-71
2023/07/15 01:44:50;;;;;;;3.87;2.60;;;;;;;;;;5056429;28;20266;-71
2023/07/15 01:47:15;;;;;;;4.93;2.60;;;;;;;;;;5056288;28;20767;-71
2023/07/15 01:49:42;;;;;;;5.70;2.30;;;;;;;;;;5056343;28;20266;-70
2023/07/15 01:52:08;;;;;;;4.20;2.40;;;;;;;;;;5056283;28;20273;-71
2023/07/15 01:54:33;;;;;;;4.10;2.30;;;;;;;;;;5056178;28;20108;-72
2023/07/15 01:56:58;;;;;;;3.25;2.38;;;;;;;;;;5056118;28;20021;-70
2023/07/15 01:59:23;;;;;;;4.03;2.43;;;;;;;;;;5056101;28;20029;-70
2023/07/15 02:01:49;;;;;;;4.53;2.57;;;;;;;;;;5056161;28;20250;-72
2023/07/15 02:04:14;;;;;;;3.20;2.40;;;;;;;;;;5056080;28;20260;-71
2023/07/15 02:06:40;;;;;;;4.22;2.60;;;;;;;;;;5055829;28;20536;-69
2023/07/15 02:09:07;;;;;;;5.63;2.60;;;;;;;;;;5056036;28;20021;-69
2023/07/15 02:11:34;;;;;;;5.38;2.45;;;;;;;;;;5055888;28;20257;-69
2023/07/15 02:13:59;;;;;;;5.05;2.42;;;;;;;;;;5055813;28;20029;-69
2023/07/15 02:16:24;;;;;;;2.33;1.90;;;;;;;;;;5055709;28;20404;-71
2023/07/15 02:18:50;;;;;;;4.82;2.30;;;;;;;;;;5055703;28;20040;-70
2023/07/15 02:21:16;;;;;;;3.72;2.20;;;;;;;;;;5054419;28;20499;-69
2023/07/15 02:23:41;;;;;;;6.60;2.27;;;;;;;;;;5055700;28;20106;-69
2023/07/15 02:26:06;;;;;;;6.40;2.20;;;;;;;;;;5055526;28;20345;-69
2023/07/15 02:28:32;;;;;;;5.60;2.50;;;;;;;;;;5055462;28;20277;-69
2023/07/15 02:30:59;;;;;;;5.50;2.45;;;;;;;;;;5055521;28;20361;-69
2023/07/15 02:33:24;;;;;;;4.40;2.15;;;;;;;;;;5054568;28;20037;-71
2023/07/15 02:35:50;;;;;;;5.50;2.92;;;;;;;;;;5055915;28;20119;-70
2023/07/15 02:38:15;;;;;;;5.60;2.58;;;;;;;;;;5054652;28;20074;-69
2023/07/15 02:40:41;;;;;;;2.75;2.10;;;;;;;;;;5055182;28;20033;-70
2023/07/15 02:43:07;;;;;;;8.00;2.40;;;;;;;;;;5055355;28;20025;-70
2023/07/15 02:45:32;;;;;;;3.60;2.30;;;;;;;;;;5055405;28;20023;-70
2023/07/15 02:47:57;;;;;;;3.23;2.50;;;;;;;;;;5055163;28;20502;-70
2023/07/15 02:50:23;;;;;;;5.53;2.50;;;;;;;;;;5055157;28;20741;-70
2023/07/15 02:52:48;;;;;;;7.68;2.30;;;;;;;;;;5055525;28;20104;-70
2023/07/15 02:55:14;;;;;;;5.97;2.17;;;;;;;;;;5055147;28;20021;-70
2023/07/15 02:57:39;;;;;;;3.85;2.70;;;;;;;;;;5055027;28;20487;-70
2023/07/15 03:00:11;;;;;;;4.60;2.53;;;;;;;;;;5054993;28;20154;-70
2023/07/15 03:02:36;;;;;;;3.25;2.35;;;;;;;;;;5055298;28;20029;-70
2023/07/15 03:05:02;;;;;;;5.32;2.63;;;;;;;;;;5055376;28;20036;-71
2023/07/15 03:07:28;;;;;;;2.53;2.30;;;;;;;;;;5055029;28;20502;-70
2023/07/15 03:09:54;;;;;;;4.15;2.50;;;;;;;;;;5055085;28;20115;-70
2023/07/15 03:12:19;;;;;;;4.03;2.50;;;;;;;;;;5054763;28;20027;-70
2023/07/15 03:14:45;;;;;;;2.80;2.17;;;;;;;;;;5054720;28;20055;-70
2023/07/15 03:17:10;;;;;;;3.65;2.20;;;;;;;;;;5054612;28;20048;-70
2023/07/15 03:19:37;;;;;;;3.40;2.33;;;;;;;;;;5054667;28;20033;-70
2023/07/15 03:22:03;;;;;;;5.03;2.58;;;;;;;;;;5054925;28;20484;-71
2023/07/15 03:24:29;;;;;;;4.20;2.15;;;;;;;;;;5054430;28;20032;-70
2023/07/15 03:26:54;;;;;;;4.80;2.30;;;;;;;;;;5054325;28;20021;-70
2023/07/15 03:29:20;;;;;;;3.83;2.50;;;;;;;;;;5054481;28;20040;-69
2023/07/15 03:31:45;;;;;;;5.55;2.17;;;;;;;;;;5053031;28;20059;-71
2023/07/15 03:34:11;;;;;;;7.10;2.58;;;;;;;;;;5054431;28;20021;-69
2023/07/15 03:36:36;;;;;;;6.47;2.58;;;;;;;;;;5054224;28;20096;-70
2023/07/15 03:39:02;;;;;;;4.18;2.25;;;;;;;;;;5052909;28;20029;-70
2023/07/15 03:41:27;;;;;;;4.40;2.50;;;;;;;;;;5054097;28;20040;-70
2023/07/15 03:43:52;;;;;;;3.47;2.38;;;;;;;;;;5054975;28;20499;-69
2023/07/15 03:46:18;;;;;;;4.27;2.07;;;;;;;;;;5054035;28;20108;-69
2023/07/15 03:48:43;;;;;;;6.35;2.40;;;;;;;;;;5052913;28;20761;-70
2023/07/15 03:51:09;;;;;;;3.95;2.42;;;;;;;;;;5052871;28;20028;-70
2023/07/15 03:53:34;;;;;;;3.27;2.30;;;;;;;;;;5052871;28;20021;-71
2023/07/15 03:56:00;;;;;;;2.78;2.20;;;;;;;;;;5054181;28;20632;-72
2023/07/15 03:58:25;;;;;;;4.38;2.60;;;;;;;;;;5052886;28;20028;-72
2023/07/15 04:00:50;;;;;;;3.77;2.57;;;;;;;;;;5054184;28;20480;-72
2023/07/15 04:03:15;;;;;;;4.20;2.10;;;;;;;;;;5052571;28;20250;-70
2023/07/15 04:05:41;;;;;;;3.60;2.30;;;;;;;;;;5054428;28;20063;-69
2023/07/15 04:08:06;;;;;;;4.10;2.30;;;;;;;;;;5053991;28;20277;-71
2023/07/15 04:10:31;;;;;;;4.85;2.50;;;;;;;;;;5053915;28;20278;-69
2023/07/15 04:12:57;;;;;;;4.40;2.25;;;;;;;;;;5054105;28;20021;-69
2023/07/15 04:15:22;;;;;;;6.73;2.47;;;;;;;;;;5052716;28;20020;-72
2023/07/15 04:17:47;;;;;;;2.93;2.33;;;;;;;;;;5053706;28;20345;-69
2023/07/15 04:20:15;;;;;;;4.38;2.00;;;;;;;;;;5053505;28;20290;-70
2023/07/15 04:22:41;;;;;;;5.22;2.50;;;;;;;;;;5053497;28;20070;-69
2023/07/15 04:25:07;;;;;;;4.32;2.30;;;;;;;;;;5053642;28;20536;-71
2023/07/15 04:27:32;;;;;;;3.10;2.22;;;;;;;;;;5053272;28;20372;-71
2023/07/15 04:29:57;;;;;;;8.32;2.28;;;;;;;;;;5053761;28;20052;-69
2023/07/15 04:32:23;;;;;;;5.78;2.60;;;;;;;;;;5052114;28;20491;-69
2023/07/15 04:34:50;;;;;;;4.18;2.35;;;;;;;;;;5053407;28;20545;-69
2023/07/15 04:37:17;;;;;;;4.82;2.50;;;;;;;;;;5052566;28;20025;-70
2023/07/15 04:39:42;;;;;;;3.83;2.55;;;;;;;;;;5053204;28;20096;-69
2023/07/15 04:42:07;;;;;;;3.57;2.07;;;;;;;;;;5053460;28;20063;-69
2023/07/15 04:44:32;;;;;;;3.17;2.13;;;;;;;;;;5053185;28;20265;-69
2023/07/15 04:46:58;;;;;;;5.33;2.50;;;;;;;;;;5053025;28;20278;-69
2023/07/15 04:49:23;;;;;;;4.45;1.92;;;;;;;;;;5053081;28;20258;-69
2023/07/15 04:51:49;;;;;;;3.03;2.20;;;;;;;;;;5053100;28;20104;-71
2023/07/15 04:54:14;;;;;;;6.07;2.53;;;;;;;;;;5053311;28;20070;-71
2023/07/15 04:56:40;;;;;;;4.85;2.28;;;;;;;;;;5052955;28;20024;-70
2023/07/15 04:59:05;;;;;;;5.40;2.30;;;;;;;;;;5053184;28;20045;-71
2023/07/15 05:01:30;;;;;;;4.47;2.25;;;;;;;;;;5052612;28;20025;-71
2023/07/15 05:03:56;;;;;;;2.67;2.05;;;;;;;;;;5052664;28;20497;-71
2023/07/15 05:06:21;;;;;;;3.15;1.85;;;;;;;;;;5051733;28;20025;-70
2023/07/15 05:08:47;;;;;;;3.55;1.98;;;;;;;;;;5052707;28;20033;-71
2023/07/15 05:11:15;;;;;;;3.30;2.08;;;;;;;;;;5053201;28;20033;-71
2023/07/15 05:13:41;;;;;;;4.07;2.03;;;;;;;;;;5053019;28;20078;-71
2023/07/15 05:16:06;;;;;;;3.70;2.00;;;;;;;;;;5053014;28;20396;-71
2023/07/15 05:18:31;;;;;;;3.65;2.00;;;;;;;;;;5052924;28;20438;-71
2023/07/15 05:20:57;;;;;;;6.22;2.40;;;;;;;;;;5053019;28;20048;-70
2023/07/15 05:23:23;;;;;;;2.75;2.05;;;;;;;;;;5053516;28;20028;-70
2023/07/15 05:25:49;;;;;;;4.50;2.20;;;;;;;;;;5051813;28;20075;-70
2023/07/15 05:28:14;;;;;;;3.42;2.05;;;;;;;;;;5051452;28;20060;-70
2023/07/15 05:30:39;;;;;;;3.60;2.08;;;;;;;;;;5052745;28;20033;-70
2023/07/15 05:33:05;;;;;;;5.00;2.25;;;;;;;;;;5052634;28;20064;-70
2023/07/15 05:35:30;;;;;;;3.78;2.30;;;;;;;;;;5052928;28;20016;-70
2023/07/15 05:37:56;;;;;;;5.00;2.13;;;;;;;;;;5052602;28;20032;-70
2023/07/15 05:40:22;;;;;;;2.08;1.83;;;;;;;;;;5052536;28;20411;-70
2023/07/15 05:42:47;;;;;;;3.75;1.92;;;;;;;;;;5052927;28;20029;-72
2023/07/15 05:45:13;;;;;;;3.67;2.08;;;;;;;;;;5051221;28;20100;-71
2023/07/15 05:47:39;;;;;;;2.27;1.90;;;;;;;;;;5052490;28;20045;-71
2023/07/15 05:50:06;;;;;;;5.15;1.88;;;;;;;;;;5052570;28;20264;-71
2023/07/15 05:52:32;;;;;;;4.05;2.05;;;;;;;;;;5052873;28;20442;-71
2023/07/15 05:54:57;;;;;;;4.15;1.90;;;;;;;;;;5051427;28;20056;-71
2023/07/15 05:57:23;;;;;;;6.20;2.00;;;;;;;;;;5052341;28;20120;-72
2023/07/15 05:59:48;;;;;;;4.72;2.08;;;;;;;;;;5053136;28;20036;-71
2023/07/15 06:02:13;;;;;;;3.87;2.00;;;;;;;;;;5052693;28;20025;-71
2023/07/15 06:04:38;;;;;;;5.65;2.08;;;;;;;;;;5052358;28;20266;-71
2023/07/15 06:07:04;;;;;;;4.03;1.90;;;;;;;;;;5052517;28;20033;-71
2023/07/15 06:09:29;;;;;;;5.25;1.80;;;;;;;;;;5053054;28;20624;-71
2023/07/15 06:11:55;;;;;;;3.03;2.00;;;;;;;;;;5052847;28;20129;-71
2023/07/15 06:14:20;;;;;;;3.90;1.95;;;;;;;;;;5054636;28;20266;-71
2023/07/15 06:16:45;;;;;;;4.53;1.90;;;;;;;;;;5056053;28;20024;-70
2023/07/15 06:19:11;;;;;;;3.97;1.90;;;;;;;;;;5056028;28;20442;-71
2023/07/15 06:21:37;;;;;;;3.90;1.90;;;;;;;;;;5055764;28;20254;-71
2023/07/15 06:24:02;;;;;;;2.88;1.92;;;;;;;;;;5055724;28;20041;-69
2023/07/15 06:26:27;;;;;;;4.97;2.08;;;;;;;;;;5055936;28;20025;-71
2023/07/15 06:28:53;;;;;;;2.63;1.70;;;;;;;;;;5055752;28;20025;-70
2023/07/15 06:31:18;;;;;;;6.55;2.03;;;;;;;;;;5055695;28;20262;-70
2023/07/15 06:33:44;;;;;;;3.60;1.80;;;;;;;;;;5055673;28;20021;-70
2023/07/15 06:36:10;;;;;;;2.88;1.92;;;;;;;;;;5056025;28;20029;-70
2023/07/15 06:38:35;;;;;;;2.13;1.77;;;;;;;;;;5055581;28;20078;-70
2023/07/15 06:41:01;;;;;;;8.30;2.20;;;;;;;;;;5055590;28;20048;-70
2023/07/15 06:43:26;;;;;;;3.85;1.77;;;;;;;;;;5055730;28;20052;-70
2023/07/15 06:45:51;;;;;;;3.58;1.83;;;;;;;;;;5055477;28;20025;-69
2023/07/15 06:48:17;;;;;;;3.58;2.15;;;;;;;;;;5055264;28;20025;-70
2023/07/15 06:50:43;;;;;;;3.58;1.83;;;;;;;;;;5055213;28;20498;-70
2023/07/15 06:53:08;;;;;;;4.00;1.85;;;;;;;;;;5055496;28;20031;-70
2023/07/15 06:55:34;;;;;;;3.88;2.03;;;;;;;;;;5055114;28;20139;-71
2023/07/15 06:58:02;;;;;;;3.25;1.95;;;;;;;;;;5053925;28;20472;-70
2023/07/15 07:00:27;;;;;;;6.20;2.00;;;;;;;;;;5055282;28;20036;-70
2023/07/15 07:02:52;;;;;;;8.35;2.15;;;;;;;;;;5053747;28;20043;-70
2023/07/15 07:05:19;;;;;;;3.58;1.95;;;;;;;;;;5055053;28;20029;-70
2023/07/15 07:07:44;;;;;;;4.13;2.00;;;;;;;;;;5054703;28;20396;-70
2023/07/15 07:10:10;;;;;;;7.05;2.28;;;;;;;;;;5053727;28;20025;-71
2023/07/15 07:12:35;;;;;;;3.65;2.05;;;;;;;;;;5054865;28;20036;-71
2023/07/15 07:15:00;;;;;;;6.07;2.30;;;;;;;;;;5054930;28;20437;-71
2023/07/15 07:17:28;;;;;;;3.50;2.10;;;;;;;;;;5055447;28;20254;-70
2023/07/15 07:19:53;;;;;;;4.90;2.00;;;;;;;;;;5054965;28;20021;-70
2023/07/15 07:22:18;;;;;;;3.85;1.98;;;;;;;;;;5055178;28;20036;-71
2023/07/15 07:24:45;;;;;;;5.87;2.10;;;;;;;;;;5054498;28;20024;-71
2023/07/15 07:27:12;;;;;;;4.70;1.90;;;;;;;;;;5055135;28;20313;-71
2023/07/15 07:29:37;;;;;;;6.50;2.17;;;;;;;;;;5055035;28;20025;-71
2023/07/15 07:32:03;;;;;;;4.05;1.92;;;;;;;;;;5053490;28;20090;-71
2023/07/15 07:34:28;;;;;;;2.55;1.77;;;;;;;;;;5053798;28;20029;-71
2023/07/15 07:36:54;;;;;;;7.23;2.30;;;;;;;;;;5055492;28;20074;-71
2023/07/15 07:39:19;;;;;;;2.50;1.90;;;;;;;;;;5054687;28;20756;-71
2023/07/15 07:41:44;;;;;;;4.78;1.90;;;;;;;;;;5054895;28;20687;-71
2023/07/15 07:44:10;;;;;;;5.53;2.00;;;;;;;;;;5054512;28;20081;-71
2023/07/15 07:46:35;;;;;;;7.38;1.80;;;;;;;;;;5054163;28;20270;-71
2023/07/15 07:49:00;;;;;;;5.05;2.22;;;;;;;;;;5054236;28;20033;-71
2023/07/15 07:51:26;;;;;;;4.28;1.92;;;;;;;;;;5054495;28;20047;-71
2023/07/15 07:53:51;;;;;;;13.25;2.05;;;;;;;;;;5054580;28;20016;-71
2023/07/15 07:56:16;;;;;;;5.55;2.08;;;;;;;;;;5054114;28;20460;-71
2023/07/15 07:58:42;;;;;;;4.83;2.20;;;;;;;;;;5054815;28;20017;-70
2023/07/15 08:01:07;;;;;;;3.83;1.90;;;;;;;;;;5054546;28;20300;-70
2023/07/15 08:03:33;;;;;;;8.82;2.00;;;;;;;;;;5053456;28;20075;-70
2023/07/15 08:05:59;;;;;;;4.28;1.67;;;;;;;;;;5055023;28;20047;-70
2023/07/15 08:08:25;;;;;;;3.25;2.22;;;;;;;;;;5055240;28;20025;-70
2023/07/15 08:10:50;;;;;;;7.13;1.85;;;;;;;;;;5055650;28;20032;-70
2023/07/15 08:13:15;;;;;;;4.80;2.00;;;;;;;;;;5055669;28;20025;-69
2023/07/15 08:15:41;;;;;;;3.40;1.80;;;;;;;;;;5054178;28;20262;-70
2023/07/15 08:18:06;;;;;;;6.90;2.25;;;;;;;;;;5056334;28;20285;-71
2023/07/15 08:20:32;;;;;;;5.43;1.90;;;;;;;;;;5056943;28;20111;-71
2023/07/15 08:22:59;;;;;;;4.78;2.00;;;;;;;;;;5055688;28;20028;-72
2023/07/15 08:25:24;;;;;;;3.58;2.00;;;;;;;;;;5056054;28;20029;-69
2023/07/15 08:27:51;;;;;;;5.35;1.98;;;;;;;;;;5056089;28;20033;-70
2023/07/15 08:30:16;;;;;;;3.25;2.00;;;;;;;;;;5056789;28;20045;-71
2023/07/15 08:32:42;;;;;;;5.25;1.85;;;;;;;;;;5055604;28;20051;-73
2023/07/15 08:35:07;;;;;;;3.53;1.90;;;;;;;;;;5054385;28;20051;-70
2023/07/15 08:37:32;;;;;;;4.63;2.00;;;;;;;;;;5055757;28;20060;-70
2023/07/15 08:39:58;;;;;;;4.85;1.90;;;;;;;;;;5056274;28;20124;-70
2023/07/15 08:42:24;;;;;;;4.32;1.90;;;;;;;;;;5054376;28;20028;-70
2023/07/15 08:44:50;;;;;;;3.00;1.70;;;;;;;;;;5055923;28;20106;-70
2023/07/15 08:47:20;;;;;;;4.78;2.22;;;;;;;;;;5054377;28;20483;-71
2023/07/15 08:49:48;;;;;;;4.18;1.77;;;;;;;;;;5054653;28;20462;-70
2023/07/15 08:52:17;;;;;;;3.55;1.80;;;;;;;;;;5055156;28;20025;-71
2023/07/15 08:54:43;;;;;;;7.50;2.00;;;;;;;;;;5055426;28;20079;-70
2023/07/15 08:57:09;;;;;;;5.07;1.90;;;;;;;;;;5054331;28;20035;-70
2023/07/15 08:59:34;;;;;;;6.90;1.85;;;;;;;;;;5054425;28;20025;-69
2023/07/15 09:02:00;;;;;;;3.07;1.80;;;;;;;;;;5054391;28;20029;-69
2023/07/15 09:04:25;;;;;;;2.40;1.70;;;;;;;;;;5054461;28;20270;-69
2023/07/15 09:06:54;;;;;;;4.93;1.75;;;;;;;;;;5054681;28;20074;-68
2023/07/15 09:09:30;;;;;;;3.33;1.90;;;;;;;;;;5054316;28;20021;-70
2023/07/15 09:12:00;;;;;;;8.00;1.70;;;;;;;;;;5055073;28;20190;-70
2023/07/15 09:14:25;;;;;;;4.63;1.67;;;;;;;;;;5054582;28;20032;-69
2023/07/15 09:16:52;;;;;;;5.47;1.70;;;;;;;;;;5054591;28;20025;-70
2023/07/15 09:19:21;;;;;;;3.47;1.80;;;;;;;;;;5053611;28;20298;-70
2023/07/15 09:22:07;;;;;;;5.55;1.80;;;;;;;;;;5053282;28;20029;-71
2023/07/15 09:24:33;;;;;;;5.53;1.77;;;;;;;;;;5053225;28;20025;-72
2023/07/15 09:27:02;;;;;;;4.78;2.00;;;;;;;;;;5051349;28;20028;-71
2023/07/15 09:29:27;;;;;;;5.60;1.50;;;;;;;;;;5053020;28;20036;-71
2023/07/15 09:31:53;;;;;;;4.85;1.60;;;;;;;;;;5051509;28;20474;-71
2023/07/15 09:34:18;;;;;;;5.38;2.03;;;;;;;;;;5052384;28;20029;-72
2023/07/15 09:36:44;;;;;;;5.38;1.83;;;;;;;;;;5051751;28;20031;-72
2023/07/15 09:39:14;;;;;;;4.32;1.90;;;;;;;;;;5052623;28;20033;-71
2023/07/15 09:41:40;;;;;;;7.53;2.20;;;;;;;;;;5052503;28;20029;-71
2023/07/15 09:44:06;;;;;;;4.18;1.55;;;;;;;;;;5052620;28;20033;-71
2023/07/15 09:46:32;;;;;;;5.45;1.70;;;;;;;;;;5052369;28;20036;-71
2023/07/15 09:48:58;;;;;;;5.18;1.75;;;;;;;;;;5056314;28;20029;-71
2023/07/15 09:51:24;;;;;;;3.45;1.50;;;;;;;;;;5056268;28;20036;-71
2023/07/15 09:53:51;;;;;;;5.75;1.58;;;;;;;;;;5055017;28;20036;-72
2023/07/15 09:56:22;;;;;;;3.75;1.63;;;;;;;;;;5054831;28;20017;-71
2023/07/15 09:58:49;;;;;;;5.88;1.90;;;;;;;;;;5056701;28;20025;-71
2023/07/15 10:01:26;;;;;;;5.65;2.00;;;;;;;;;;5055551;28;20086;-73
2023/07/15 10:04:10;;;;;;;3.17;1.70;;;;;;;;;;5056013;28;20025;-73
2023/07/15 10:06:35;;;;;;;5.10;1.90;;;;;;;;;;5055768;28;20021;-72
2023/07/15 10:09:02;;;;;;;8.15;1.80;;;;;;;;;;5055132;28;20040;-72
2023/07/15 10:11:29;;;;;;;2.88;1.50;;;;;;;;;;5055406;28;20047;-71
2023/07/15 10:13:55;;;;;;;2.63;1.60;;;;;;;;;;5055886;28;20056;-73
2023/07/15 10:16:20;;;;;;;9.75;1.88;;;;;;;;;;5054722;28;20482;-71
2023/07/15 10:18:46;;;;;;;3.08;1.55;;;;;;;;;;5056211;28;20025;-76
2023/07/15 10:21:14;;;;;;;3.15;1.50;;;;;;;;;;5056107;28;20028;-74
2023/07/15 10:23:39;;;;;;;3.03;1.60;;;;;;;;;;5055088;28;20131;-73
2023/07/15 10:26:07;;;;;;;8.13;1.40;;;;;;;;;;5056200;28;20052;-74
2023/07/15 10:28:34;;;;;;;4.45;1.80;;;;;;;;;;5055081;28;20270;-73
2023/07/15 10:31:11;;;;;;;3.83;1.55;;;;;;;;;;5055937;28;20511;-73
2023/07/15 10:33:51;;;;;;;5.22;2.00;;;;;;;;;;5056851;28;20063;-73
2023/07/15 10:36:34;;;;;;;3.08;1.77;;;;;;;;;;5055813;28;20096;-73
2023/07/15 10:39:15;;;;;;;3.28;1.75;;;;;;;;;;5055780;28;20032;-73
2023/07/15 10:41:42;;;;;;;4.70;1.80;;;;;;;;;;5055395;28;20546;-74
2023/07/15 10:44:21;;;;;;;3.47;1.90;;;;;;;;;;5054102;28;20059;-74
2023/07/15 10:46:59;;;;;;;2.78;1.75;;;;;;;;;;5054447;28;20032;-73
2023/07/15 10:49:24;;;;;;;5.63;2.00;;;;;;;;;;5055478;28;20514;-73
2023/07/15 10:51:52;;;;;;;2.95;1.90;;;;;;;;;;5054597;28;20068;-73
2023/07/15 10:54:19;;;;;;;4.35;1.85;;;;;;;;;;5053760;28;20566;-74
2023/07/15 10:56:45;;;;;;;4.10;1.90;;;;;;;;;;5052638;28;20480;-73
2023/07/15 10:59:10;;;;;;;2.97;1.73;;;;;;;;;;5053642;28;20029;-76
2023/07/15 11:01:36;;;;;;;2.95;1.73;;;;;;;;;;5055040;28;20337;-74
2023/07/15 11:04:04;;;;;;;3.13;1.88;;;;;;;;;;5053973;28;20408;-74
2023/07/15 11:06:30;;;;;;;2.83;1.90;;;;;;;;;;5054207;28;20029;-74
2023/07/15 11:08:55;;;;;;;5.60;1.92;;;;;;;;;;5054833;28;20036;-74
2023/07/15 11:11:23;;;;;;;5.05;2.00;;;;;;;;;;5053483;28;20028;-74
2023/07/15 11:13:48;;;;;;;3.72;2.00;;;;;;;;;;5055033;28;20032;-75
2023/07/15 11:16:13;;;;;;;4.63;1.70;;;;;;;;;;5053239;28;20021;-75
2023/07/15 11:18:39;;;;;;;5.97;1.60;;;;;;;;;;5052778;28;20036;-76
2023/07/15 11:21:05;;;;;;;2.40;1.57;;;;;;;;;;5053430;28;20028;-74
2023/07/15 11:23:30;;;;;;;2.35;1.42;;;;;;;;;;5053923;28;20265;-75
2023/07/15 11:25:59;;;;;;;3.17;1.52;;;;;;;;;;5054596;28;20048;-77
2023/07/15 11:28:26;;;;;;;4.53;1.70;;;;;;;;;;5054592;28;20476;-75
2023/07/15 11:30:51;;;;;;;1.98;1.48;;;;;;;;;;5054700;28;20025;-74
2023/07/15 11:33:16;;;;;;;6.47;1.70;;;;;;;;;;5054722;28;20078;-75
2023/07/15 11:35:43;;;;;;;2.90;1.60;;;;;;;;;;5054278;28;20070;-73
2023/07/15 11:38:11;;;;;;;3.88;1.80;;;;;;;;;;5054360;28;20491;-74
2023/07/15 11:40:47;;;;;;;3.78;1.60;;;;;;;;;;5052924;28;20167;-73
2023/07/15 11:43:15;;;;;;;5.13;1.75;;;;;;;;;;5053065;28;20166;-74
2023/07/15 11:45:40;;;;;;;2.83;1.60;;;;;;;;;;5055143;28;20025;-73
2023/07/15 11:48:06;;;;;;;3.78;1.70;;;;;;;;;;5054085;28;20039;-73
2023/07/15 11:50:35;;;;;;;4.82;1.92;;;;;;;;;;5054254;28;20104;-78
2023/07/15 11:53:00;;;;;;;4.45;1.75;;;;;;;;;;5054619;28;20024;-78
2023/07/15 11:55:26;;;;;;;3.63;2.00;;;;;;;;;;5053628;28;20112;-76
2023/07/15 11:57:52;;;;;;;4.07;1.83;;;;;;;;;;5054666;28;20265;-76
2023/07/15 12:00:25;;;;;;;11.93;1.80;;;;;;;;;;5055648;28;20024;-76
2023/07/15 12:02:50;;;;;;;2.65;1.63;;;;;;;;;;5054611;28;20508;-75
2023/07/15 12:05:16;;;;;;;4.13;2.00;;;;;;;;;;5053878;28;20037;-75
2023/07/15 12:07:47;;;;;;;2.70;1.77;;;;;;;;;;5053557;28;20029;-75
2023/07/15 12:10:13;;;;;;;3.58;1.70;;;;;;;;;;5051727;28;20032;-75
2023/07/15 12:12:38;;;;;;;2.30;1.60;;;;;;;;;;5053206;28;20020;-74
2023/07/15 12:15:04;;;;;;;5.05;1.77;;;;;;;;;;5053765;28;20032;-75
2023/07/15 12:17:29;;;;;;;3.65;1.90;;;;;;;;;;5053522;28;20391;-75
2023/07/15 12:19:55;;;;;;;2.60;1.90;;;;;;;;;;5052289;28;20495;-75
2023/07/15 12:22:20;;;;;;;8.93;1.90;;;;;;;;;;5053474;28;20036;-75
2023/07/15 12:24:45;;;;;;;4.97;1.90;;;;;;;;;;5053546;28;20273;-76
2023/07/15 12:27:10;;;;;;;3.37;1.60;;;;;;;;;;5053285;28;20648;-75
2023/07/15 12:29:35;;;;;;;5.33;1.90;;;;;;;;;;5053326;28;20320;-75
2023/07/15 12:32:01;;;;;;;4.37;2.00;;;;;;;;;;5053358;28;20029;-75
2023/07/15 12:34:26;;;;;;;6.43;1.63;;;;;;;;;;5052112;28;20029;-75
2023/07/15 12:36:52;;;;;;;2.28;1.70;;;;;;;;;;5053584;28;20261;-75
2023/07/15 12:39:17;;;;;;;2.60;1.80;;;;;;;;;;5053253;28;20017;-76
2023/07/15 12:41:42;;;;;;;2.57;1.67;;;;;;;;;;5053058;28;20354;-74
2023/07/15 12:44:12;;;;;;;2.70;1.80;;;;;;;;;;5053161;28;20261;-75
2023/07/15 12:46:37;;;;;;;2.38;1.70;;;;;;;;;;5051768;28;20319;-75
2023/07/15 12:49:02;;;;;;;3.00;1.92;;;;;;;;;;5053037;28;20489;-76
2023/07/15 12:51:27;;;;;;;2.90;1.70;;;;;;;;;;5053826;28;20032;-78
2023/07/15 12:53:53;;;;;;;5.70;2.10;;;;;;;;;;5054125;28;20269;-73
2023/07/15 12:56:20;;;;;;;3.43;2.10;;;;;;;;;;5053063;28;20357;-72
2023/07/15 12:58:45;;;;;;;2.97;2.00;;;;;;;;;;5053297;28;20049;-72
2023/07/15 13:01:10;;;;;;;3.20;1.60;;;;;;;;;;5053037;28;20114;-71
2023/07/15 13:03:35;;;;;;;3.27;1.60;;;;;;;;;;5052856;28;20269;-72
2023/07/15 13:06:01;;;;;;;3.05;1.85;;;;;;;;;;5053039;28;20269;-72
2023/07/15 13:08:26;;;;;;;2.05;1.55;;;;;;;;;;5052823;28;20017;-72
2023/07/15 13:10:52;;;;;;;2.40;1.90;;;;;;;;;;5052816;28;20029;-72
2023/07/15 13:13:17;;;;;;;3.38;1.90;;;;;;;;;;5053893;28;20262;-72
2023/07/15 13:15:46;;;;;;;5.18;2.42;;;;;;;;;;5052600;28;20021;-72
2023/07/15 13:18:12;;;;;;;2.88;1.67;;;;;;;;;;5052676;28;20029;-72
2023/07/15 13:20:38;;;;;;;2.67;1.83;;;;;;;;;;5051394;28;20410;-72
2023/07/15 13:23:03;;;;;;;4.35;2.53;;;;;;;;;;5055367;28;20021;-72
2023/07/15 13:25:28;;;;;;;2.67;1.80;;;;;;;;;;5055429;28;20392;-71
2023/07/15 13:27:54;;;;;;;5.75;1.67;;;;;;;;;;5055293;28;20282;-71
2023/07/15 13:30:19;;;;;;;2.58;1.70;;;;;;;;;;5056279;28;20044;-73
2023/07/15 13:32:44;;;;;;;3.25;1.60;;;;;;;;;;5055789;28;20029;-72
2023/07/15 13:35:10;;;;;;;5.63;1.77;;;;;;;;;;5056592;28;20025;-72
2023/07/15 13:37:35;;;;;;;2.33;1.43;;;;;;;;;;5056669;28;20720;-72
2023/07/15 13:40:00;;;;;;;4.00;1.60;;;;;;;;;;5054979;28;20394;-73
2023/07/15 13:42:25;;;;;;;5.10;1.60;;;;;;;;;;5056410;28;20269;-72
2023/07/15 13:44:51;;;;;;;1.83;1.50;;;;;;;;;;5057102;28;20075;-78
2023/07/15 13:47:17;;;;;;;1.67;1.40;;;;;;;;;;5056306;28;20112;-72
2023/07/15 13:49:42;;;;;;;2.38;1.58;;;;;;;;;;5056563;28;20029;-72
2023/07/15 13:52:07;;;;;;;2.28;1.88;;;;;;;;;;5055122;28;20021;-72
2023/07/15 13:54:33;;;;;;;2.30;1.40;;;;;;;;;;5056537;28;20051;-72
2023/07/15 13:56:58;;;;;;;4.15;1.70;;;;;;;;;;5056262;28;20029;-72
2023/07/15 13:59:24;;;;;;;1.80;1.35;;;;;;;;;;5056442;28;20021;-77
2023/07/15 14:01:50;;;;;;;1.75;1.48;;;;;;;;;;5054890;28;20033;-72
2023/07/15 14:04:16;;;;;;;2.30;1.40;;;;;;;;;;5055948;28;20117;-72
2023/07/15 14:06:41;;;;;;;1.88;1.67;;;;;;;;;;5054631;28;20078;-72
2023/07/15 14:09:08;;;;;;;3.42;1.80;;;;;;;;;;5056277;28;20053;-72
2023/07/15 14:11:34;;;;;;;3.47;1.90;;;;;;;;;;5054715;28;20032;-72
2023/07/15 14:13:59;;;;;;;2.63;1.42;;;;;;;;;;5056018;28;20499;-72
2023/07/15 14:16:25;;;;;;;3.78;1.70;;;;;;;;;;5055954;28;20028;-74
2023/07/15 14:18:50;;;;;;;7.43;1.80;;;;;;;;;;5055763;28;20391;-74
2023/07/15 14:21:15;;;;;;;3.77;1.60;;;;;;;;;;5054552;28;20258;-73
2023/07/15 14:23:40;;;;;;;2.00;1.60;;;;;;;;;;5056060;28;20297;-75
2023/07/15 14:26:06;;;;;;;3.17;1.67;;;;;;;;;;5055136;28;20525;-75
2023/07/15 14:28:31;;;;;;;3.42;1.80;;;;;;;;;;5055261;28;20078;-75
2023/07/15 14:30:56;;;;;;;5.30;1.77;;;;;;;;;;5054255;28;20029;-74
2023/07/15 14:33:21;;;;;;;2.00;1.58;;;;;;;;;;5054568;28;20297;-74
2023/07/15 14:35:47;;;;;;;2.17;1.50;;;;;;;;;;5055232;28;20024;-73
2023/07/15 14:38:12;;;;;;;3.97;1.40;;;;;;;;;;5054293;28;20296;-74